createdAt,value
2018-02-04T00:00:46.622Z,1005.63
2018-02-04T00:02:46.654Z,1005.64
2018-02-04T00:03:46.652Z,1005.66
2018-02-04T00:04:46.972Z,1005.63
2018-02-04T00:05:47.086Z,1005.64
2018-02-04T00:06:49.154Z,1005.68
2018-02-04T00:07:46.810Z,1005.66
2018-02-04T00:08:46.698Z,1005.71
2018-02-04T00:09:46.716Z,1005.76
2018-02-04T00:10:46.793Z,1005.73
2018-02-04T00:11:46.730Z,1005.76
2018-02-04T00:12:46.737Z,1005.78
2018-02-04T00:13:46.752Z,1005.79
2018-02-04T00:15:46.922Z,1005.76
2018-02-04T00:16:46.788Z,1005.77
2018-02-04T00:17:46.785Z,1005.76
2018-02-04T00:18:46.798Z,1005.77
2018-02-04T00:19:46.808Z,1005.75
2018-02-04T00:20:46.824Z,1005.82
2018-02-04T00:21:46.830Z,1005.84
2018-02-04T00:22:46.838Z,1005.85
2018-02-04T00:23:46.846Z,1005.85
2018-02-04T00:24:46.860Z,1005.83
2018-02-04T00:25:47.049Z,1005.86
2018-02-04T00:26:46.875Z,1005.86
2018-02-04T00:27:46.885Z,1005.87
2018-02-04T00:28:46.968Z,1005.87
2018-02-04T00:29:46.928Z,1005.90
2018-02-04T00:30:47.035Z,1005.88
2018-02-04T00:31:47.062Z,1005.92
2018-02-04T00:32:46.934Z,1005.93
2018-02-04T00:33:46.943Z,1005.90
2018-02-04T00:34:46.953Z,1005.95
2018-02-04T00:35:46.962Z,1006.00
2018-02-04T00:36:47.123Z,1006.00
2018-02-04T00:37:46.985Z,1006.03
2018-02-04T00:38:47.261Z,1006.02
2018-02-04T00:39:47.157Z,1006.06
2018-02-04T00:40:47.012Z,1006.11
2018-02-04T00:41:47.074Z,1006.15
2018-02-04T00:42:47.238Z,1006.13
2018-02-04T00:43:47.041Z,1006.14
2018-02-04T00:44:47.052Z,1006.16
2018-02-04T00:45:47.064Z,1006.12
2018-02-04T00:46:47.083Z,1006.16
2018-02-04T00:47:47.388Z,1006.18
2018-02-04T00:48:47.566Z,1006.17
2018-02-04T00:49:47.348Z,1006.18
2018-02-04T00:50:47.111Z,1006.23
2018-02-04T00:51:47.120Z,1006.26
2018-02-04T00:52:47.132Z,1006.25
2018-02-04T00:53:47.139Z,1006.22
2018-02-04T00:54:47.158Z,1006.23
2018-02-04T00:55:47.159Z,1006.26
2018-02-04T00:56:47.168Z,1006.29
2018-02-04T00:57:47.304Z,1006.30
2018-02-04T00:59:47.339Z,1006.35
2018-02-04T01:00:47.208Z,1006.38
2018-02-04T01:01:47.230Z,1006.38
2018-02-04T01:02:47.318Z,1006.44
2018-02-04T01:04:47.502Z,1006.45
2018-02-04T01:05:47.258Z,1006.46
2018-02-04T01:06:47.268Z,1006.44
2018-02-04T01:07:47.275Z,1006.48
2018-02-04T01:08:47.298Z,1006.49
2018-02-04T01:09:47.307Z,1006.50
2018-02-04T01:10:47.306Z,1006.54
2018-02-04T01:11:47.319Z,1006.53
2018-02-04T01:12:47.379Z,1006.51
2018-02-04T01:13:47.538Z,1006.57
2018-02-04T01:14:47.400Z,1006.55
2018-02-04T01:15:47.356Z,1006.54
2018-02-04T01:16:47.428Z,1006.55
2018-02-04T01:17:47.497Z,1006.58
2018-02-04T01:18:47.397Z,1006.63
2018-02-04T01:19:47.446Z,1006.67
2018-02-04T01:20:47.724Z,1006.67
2018-02-04T01:21:48.093Z,1006.63
2018-02-04T01:22:47.429Z,1006.71
2018-02-04T01:23:47.432Z,1006.69
2018-02-04T01:24:47.439Z,1006.72
2018-02-04T01:25:47.449Z,1006.72
2018-02-04T01:27:47.973Z,1006.69
2018-02-04T01:28:47.736Z,1006.72
2018-02-04T01:29:47.489Z,1006.77
2018-02-04T01:31:47.510Z,1006.78
2018-02-04T01:33:47.528Z,1006.82
2018-02-04T01:34:47.534Z,1006.85
2018-02-04T01:35:47.547Z,1006.89
2018-02-04T01:36:47.608Z,1006.88
2018-02-04T01:37:47.720Z,1006.87
2018-02-04T01:38:47.583Z,1006.88
2018-02-04T01:39:47.583Z,1006.87
2018-02-04T01:40:47.607Z,1006.90
2018-02-04T01:41:47.691Z,1006.88
2018-02-04T01:42:47.613Z,1006.91
2018-02-04T01:43:47.742Z,1006.88
2018-02-04T01:44:47.724Z,1006.86
2018-02-04T01:45:48.718Z,1006.90
2018-02-04T01:46:47.667Z,1006.91
2018-02-04T01:47:47.664Z,1006.95
2018-02-04T01:48:47.712Z,1006.94
2018-02-04T01:49:48.484Z,1006.97
2018-02-04T01:50:48.866Z,1006.95
2018-02-04T01:51:47.817Z,1006.96
2018-02-04T01:53:49.224Z,1006.93
2018-02-04T01:54:48.491Z,1006.92
2018-02-04T01:56:48.565Z,1006.98
2018-02-04T01:57:49.396Z,1006.93
2018-02-04T01:58:48.300Z,1006.95
2018-02-04T01:59:48.483Z,1006.91
2018-02-04T02:00:49.572Z,1007.02
2018-02-04T02:01:47.808Z,1006.95
2018-02-04T02:02:47.957Z,1006.96
2018-02-04T02:03:48.541Z,1006.97
2018-02-04T02:04:47.970Z,1007.01
2018-02-04T02:05:47.837Z,1006.97
2018-02-04T02:06:47.949Z,1007.01
2018-02-04T02:07:47.861Z,1007.02
2018-02-04T02:08:47.864Z,1007.03
2018-02-04T02:09:47.874Z,1006.99
2018-02-04T02:10:47.893Z,1007.00
2018-02-04T02:11:47.905Z,1007.07
2018-02-04T02:12:47.902Z,1007.02
2018-02-04T02:13:47.908Z,1007.03
2018-02-04T02:14:47.961Z,1007.03
2018-02-04T02:15:47.934Z,1007.04
2018-02-04T02:16:47.981Z,1007.06
2018-02-04T02:17:47.943Z,1007.11
2018-02-04T02:18:47.954Z,1007.06
2018-02-04T02:19:47.973Z,1007.07
2018-02-04T02:20:47.975Z,1007.09
2018-02-04T02:21:48.037Z,1007.11
2018-02-04T02:22:47.992Z,1007.14
2018-02-04T02:23:48.002Z,1007.10
2018-02-04T02:24:48.012Z,1007.11
2018-02-04T02:25:48.021Z,1007.12
2018-02-04T02:26:48.031Z,1007.13
2018-02-04T02:27:48.191Z,1007.15
2018-02-04T02:28:48.207Z,1007.17
2018-02-04T02:29:48.063Z,1007.15
2018-02-04T02:30:48.076Z,1007.16
2018-02-04T02:31:48.083Z,1007.14
2018-02-04T02:32:48.099Z,1007.16
2018-02-04T02:33:48.099Z,1007.17
2018-02-04T02:34:48.110Z,1007.23
2018-02-04T02:35:48.118Z,1007.23
2018-02-04T02:36:48.831Z,1007.23
2018-02-04T02:37:48.140Z,1007.25
2018-02-04T02:38:48.999Z,1007.27
2018-02-04T02:39:48.157Z,1007.28
2018-02-04T02:40:48.166Z,1007.30
2018-02-04T02:41:48.175Z,1007.26
2018-02-04T02:42:48.190Z,1007.24
2018-02-04T02:43:48.195Z,1007.29
2018-02-04T02:44:48.285Z,1007.34
2018-02-04T02:45:48.214Z,1007.30
2018-02-04T02:46:48.230Z,1007.39
2018-02-04T02:47:48.241Z,1007.37
2018-02-04T02:48:48.314Z,1007.39
2018-02-04T02:49:48.256Z,1007.40
2018-02-04T02:50:48.276Z,1007.52
2018-02-04T02:51:48.423Z,1007.45
2018-02-04T02:52:48.281Z,1007.54
2018-02-04T02:53:48.294Z,1007.50
2018-02-04T02:54:48.301Z,1007.50
2018-02-04T02:55:48.313Z,1007.57
2018-02-04T02:56:48.335Z,1007.57
2018-02-04T02:57:48.330Z,1007.57
2018-02-04T02:58:48.515Z,1007.56
2018-02-04T02:59:48.353Z,1007.57
2018-02-04T03:00:48.360Z,1007.62
2018-02-04T03:01:48.381Z,1007.64
2018-02-04T03:02:48.380Z,1007.65
2018-02-04T03:03:48.389Z,1007.66
2018-02-04T03:04:48.397Z,1007.67
2018-02-04T03:05:48.914Z,1007.69
2018-02-04T03:06:48.803Z,1007.68
2018-02-04T03:07:48.774Z,1007.72
2018-02-04T03:08:48.438Z,1007.71
2018-02-04T03:09:48.454Z,1007.73
2018-02-04T03:10:48.457Z,1007.77
2018-02-04T03:11:48.468Z,1007.74
2018-02-04T03:12:48.479Z,1007.82
2018-02-04T03:13:48.487Z,1007.83
2018-02-04T03:14:48.711Z,1007.82
2018-02-04T03:15:48.557Z,1007.83
2018-02-04T03:16:48.517Z,1007.82
2018-02-04T03:17:48.529Z,1007.79
2018-02-04T03:18:48.620Z,1007.83
2018-02-04T03:19:48.548Z,1007.85
2018-02-04T03:20:48.555Z,1007.85
2018-02-04T03:21:48.564Z,1007.90
2018-02-04T03:22:48.585Z,1007.93
2018-02-04T03:23:48.584Z,1007.95
2018-02-04T03:24:48.597Z,1007.92
2018-02-04T03:25:48.604Z,1007.94
2018-02-04T03:26:48.618Z,1007.94
2018-02-04T03:27:48.624Z,1007.96
2018-02-04T03:28:48.634Z,1007.99
2018-02-04T03:29:48.642Z,1008.02
2018-02-04T03:30:48.656Z,1008.05
2018-02-04T03:31:48.663Z,1008.04
2018-02-04T03:32:48.928Z,1008.04
2018-02-04T03:34:48.713Z,1008.06
2018-02-04T03:35:49.262Z,1008.11
2018-02-04T03:36:48.763Z,1008.15
2018-02-04T03:37:48.870Z,1008.17
2018-02-04T03:38:48.975Z,1008.18
2018-02-04T03:39:48.745Z,1008.18
2018-02-04T03:40:48.751Z,1008.19
2018-02-04T03:41:48.758Z,1008.23
2018-02-04T03:42:48.769Z,1008.24
2018-02-04T03:43:48.781Z,1008.30
2018-02-04T03:44:48.806Z,1008.30
2018-02-04T03:45:48.800Z,1008.30
2018-02-04T03:46:48.815Z,1008.30
2018-02-04T03:47:48.821Z,1008.32
2018-02-04T03:48:48.841Z,1008.31
2018-02-04T03:49:48.869Z,1008.33
2018-02-04T03:50:48.849Z,1008.35
2018-02-04T03:51:48.860Z,1008.35
2018-02-04T03:52:48.867Z,1008.39
2018-02-04T03:53:48.878Z,1008.37
2018-02-04T03:54:48.887Z,1008.41
2018-02-04T03:55:48.898Z,1008.43
2018-02-04T03:56:48.908Z,1008.45
2018-02-04T03:57:48.916Z,1008.49
2018-02-04T03:58:48.931Z,1008.44
2018-02-04T03:59:48.938Z,1008.50
2018-02-04T04:00:48.955Z,1008.54
2018-02-04T04:01:48.956Z,1008.48
2018-02-04T04:02:49.015Z,1008.44
2018-02-04T04:03:49.103Z,1008.47
2018-02-04T04:04:49.063Z,1008.52
2018-02-04T04:05:48.995Z,1008.53
2018-02-04T04:06:49.009Z,1008.54
2018-02-04T04:07:49.030Z,1008.51
2018-02-04T04:08:49.024Z,1008.53
2018-02-04T04:09:49.087Z,1008.56
2018-02-04T04:10:49.339Z,1008.59
2018-02-04T04:11:49.124Z,1008.55
2018-02-04T04:12:49.062Z,1008.66
2018-02-04T04:13:49.073Z,1008.65
2018-02-04T04:14:49.085Z,1008.68
2018-02-04T04:15:49.093Z,1008.71
2018-02-04T04:16:49.101Z,1008.74
2018-02-04T04:18:49.122Z,1008.74
2018-02-04T04:19:49.460Z,1008.75
2018-02-04T04:20:49.143Z,1008.70
2018-02-04T04:21:49.149Z,1008.77
2018-02-04T04:22:49.187Z,1008.77
2018-02-04T04:23:49.170Z,1008.78
2018-02-04T04:24:49.180Z,1008.78
2018-02-04T04:25:49.189Z,1008.82
2018-02-04T04:26:49.198Z,1008.86
2018-02-04T04:27:49.211Z,1008.85
2018-02-04T04:28:49.379Z,1008.88
2018-02-04T04:29:49.230Z,1008.89
2018-02-04T04:30:49.239Z,1008.93
2018-02-04T04:31:49.249Z,1008.96
2018-02-04T04:32:49.270Z,1008.90
2018-02-04T04:34:49.560Z,1008.96
2018-02-04T04:35:49.288Z,1008.91
2018-02-04T04:36:49.297Z,1008.96
2018-02-04T04:37:49.317Z,1009.00
2018-02-04T04:38:49.469Z,1009.00
2018-02-04T04:39:49.327Z,1009.00
2018-02-04T04:40:49.366Z,1008.97
2018-02-04T04:41:49.348Z,1009.00
2018-02-04T04:42:49.357Z,1009.00
2018-02-04T04:43:49.367Z,1009.01
2018-02-04T04:44:49.377Z,1009.02
2018-02-04T04:45:49.390Z,1009.05
2018-02-04T04:46:49.546Z,1009.06
2018-02-04T04:47:49.407Z,1009.04
2018-02-04T04:48:49.666Z,1009.04
2018-02-04T04:49:49.944Z,1009.09
2018-02-04T04:50:49.486Z,1009.08
2018-02-04T04:51:49.449Z,1009.13
2018-02-04T04:52:49.461Z,1009.14
2018-02-04T04:53:49.465Z,1009.15
2018-02-04T04:54:49.486Z,1009.17
2018-02-04T04:55:49.493Z,1009.14
2018-02-04T04:56:49.493Z,1009.17
2018-02-04T04:57:49.654Z,1009.19
2018-02-04T04:58:49.517Z,1009.20
2018-02-04T04:59:49.525Z,1009.20
2018-02-04T05:00:49.538Z,1009.24
2018-02-04T05:01:49.543Z,1009.24
2018-02-04T05:02:49.571Z,1009.26
2018-02-04T05:03:49.564Z,1009.28
2018-02-04T05:04:49.574Z,1009.24
2018-02-04T05:05:49.582Z,1009.23
2018-02-04T05:06:49.592Z,1009.22
2018-02-04T05:07:49.604Z,1009.23
2018-02-04T05:08:49.613Z,1009.19
2018-02-04T05:09:49.623Z,1009.20
2018-02-04T05:10:49.633Z,1009.20
2018-02-04T05:11:49.650Z,1009.22
2018-02-04T05:12:49.652Z,1009.23
2018-02-04T05:13:49.663Z,1009.25
2018-02-04T05:14:49.721Z,1009.27
2018-02-04T05:15:49.804Z,1009.29
2018-02-04T05:16:49.994Z,1009.28
2018-02-04T05:17:49.709Z,1009.28
2018-02-04T05:18:49.715Z,1009.24
2018-02-04T05:19:49.725Z,1009.26
2018-02-04T05:20:49.730Z,1009.30
2018-02-04T05:21:49.765Z,1009.31
2018-02-04T05:22:49.750Z,1009.29
2018-02-04T05:23:49.851Z,1009.27
2018-02-04T05:24:49.776Z,1009.27
2018-02-04T05:25:50.230Z,1009.29
2018-02-04T05:26:50.091Z,1009.35
2018-02-04T05:27:50.724Z,1009.32
2018-02-04T05:29:49.819Z,1009.35
2018-02-04T05:30:49.833Z,1009.37
2018-02-04T05:31:50.203Z,1009.39
2018-02-04T05:32:49.999Z,1009.38
2018-02-04T05:33:49.859Z,1009.41
2018-02-04T05:34:49.869Z,1009.40
2018-02-04T05:35:49.883Z,1009.41
2018-02-04T05:36:49.889Z,1009.42
2018-02-04T05:37:49.949Z,1009.43
2018-02-04T05:38:50.574Z,1009.46
2018-02-04T05:39:50.213Z,1009.46
2018-02-04T05:40:49.927Z,1009.46
2018-02-04T05:41:49.946Z,1009.48
2018-02-04T05:42:49.964Z,1009.52
2018-02-04T05:43:50.610Z,1009.53
2018-02-04T05:44:50.502Z,1009.55
2018-02-04T05:45:50.885Z,1009.55
2018-02-04T05:46:49.989Z,1009.55
2018-02-04T05:47:50.007Z,1009.56
2018-02-04T05:48:50.156Z,1009.64
2018-02-04T05:49:50.304Z,1009.69
2018-02-04T05:50:50.030Z,1009.69
2018-02-04T05:51:50.136Z,1009.68
2018-02-04T05:52:50.198Z,1009.71
2018-02-04T05:53:50.058Z,1009.75
2018-02-04T05:54:51.658Z,1009.72
2018-02-04T05:55:50.127Z,1009.74
2018-02-04T05:56:50.118Z,1009.77
2018-02-04T05:57:50.347Z,1009.77
2018-02-04T05:58:50.159Z,1009.77
2018-02-04T05:59:50.141Z,1009.80
2018-02-04T06:00:50.126Z,1009.82
2018-02-04T06:01:50.136Z,1009.81
2018-02-04T06:02:50.145Z,1009.84
2018-02-04T06:03:50.236Z,1009.81
2018-02-04T06:04:50.170Z,1009.83
2018-02-04T06:05:50.529Z,1009.83
2018-02-04T06:06:50.188Z,1009.86
2018-02-04T06:07:50.195Z,1009.88
2018-02-04T06:08:50.207Z,1009.93
2018-02-04T06:09:50.223Z,1009.91
2018-02-04T06:10:50.228Z,1009.94
2018-02-04T06:11:50.725Z,1009.91
2018-02-04T06:12:50.671Z,1009.90
2018-02-04T06:13:50.259Z,1009.91
2018-02-04T06:14:50.706Z,1009.91
2018-02-04T06:15:50.276Z,1009.86
2018-02-04T06:16:50.284Z,1009.90
2018-02-04T06:17:50.297Z,1009.90
2018-02-04T06:18:50.304Z,1009.92
2018-02-04T06:19:50.324Z,1009.90
2018-02-04T06:20:50.324Z,1009.94
2018-02-04T06:21:50.614Z,1009.92
2018-02-04T06:22:50.348Z,1009.96
2018-02-04T06:23:50.702Z,1009.94
2018-02-04T06:24:50.931Z,1009.95
2018-02-04T06:25:50.377Z,1010.02
2018-02-04T06:26:50.385Z,1009.97
2018-02-04T06:27:50.429Z,1010.01
2018-02-04T06:28:50.410Z,1010.04
2018-02-04T06:29:50.563Z,1010.01
2018-02-04T06:30:50.436Z,1010.05
2018-02-04T06:31:50.588Z,1010.03
2018-02-04T06:32:50.446Z,1010.03
2018-02-04T06:33:50.546Z,1010.03
2018-02-04T06:34:50.466Z,1010.05
2018-02-04T06:35:50.478Z,1010.04
2018-02-04T06:36:50.485Z,1010.09
2018-02-04T06:37:50.494Z,1010.13
2018-02-04T06:38:50.503Z,1010.16
2018-02-04T06:39:50.523Z,1010.23
2018-02-04T06:40:50.522Z,1010.21
2018-02-04T06:41:50.538Z,1010.21
2018-02-04T06:42:50.567Z,1010.22
2018-02-04T06:43:50.556Z,1010.26
2018-02-04T06:44:50.565Z,1010.24
2018-02-04T06:45:50.572Z,1010.27
2018-02-04T06:46:50.584Z,1010.25
2018-02-04T06:47:50.594Z,1010.30
2018-02-04T06:48:50.604Z,1010.32
2018-02-04T06:49:50.611Z,1010.29
2018-02-04T06:50:50.623Z,1010.33
2018-02-04T06:51:50.865Z,1010.38
2018-02-04T06:52:50.642Z,1010.37
2018-02-04T06:53:50.664Z,1010.37
2018-02-04T06:54:50.936Z,1010.39
2018-02-04T06:55:50.673Z,1010.41
2018-02-04T06:56:50.682Z,1010.39
2018-02-04T06:57:50.792Z,1010.42
2018-02-04T06:58:50.731Z,1010.48
2018-02-04T06:59:50.721Z,1010.45
2018-02-04T07:00:50.744Z,1010.47
2018-02-04T07:01:51.950Z,1010.48
2018-02-04T07:02:50.744Z,1010.51
2018-02-04T07:03:50.763Z,1010.51
2018-02-04T07:04:50.764Z,1010.53
2018-02-04T07:05:50.767Z,1010.59
2018-02-04T07:06:50.930Z,1010.61
2018-02-04T07:07:50.789Z,1010.58
2018-02-04T07:08:50.798Z,1010.60
2018-02-04T07:09:50.810Z,1010.64
2018-02-04T07:10:50.846Z,1010.67
2018-02-04T07:11:51.168Z,1010.69
2018-02-04T07:12:50.839Z,1010.71
2018-02-04T07:13:50.848Z,1010.70
2018-02-04T07:14:50.865Z,1010.71
2018-02-04T07:15:50.872Z,1010.76
2018-02-04T07:16:50.878Z,1010.74
2018-02-04T07:17:50.888Z,1010.70
2018-02-04T07:19:50.909Z,1010.79
2018-02-04T07:20:50.915Z,1010.80
2018-02-04T07:21:50.925Z,1010.78
2018-02-04T07:22:50.938Z,1010.76
2018-02-04T07:23:50.951Z,1010.81
2018-02-04T07:24:51.007Z,1010.82
2018-02-04T07:25:50.967Z,1010.83
2018-02-04T07:27:51.100Z,1010.85
2018-02-04T07:28:51.245Z,1010.91
2018-02-04T07:29:51.093Z,1010.91
2018-02-04T07:30:51.045Z,1010.96
2018-02-04T07:31:51.029Z,1010.92
2018-02-04T07:32:51.036Z,1011.00
2018-02-04T07:33:51.048Z,1011.02
2018-02-04T07:34:51.208Z,1010.97
2018-02-04T07:35:51.066Z,1011.05
2018-02-04T07:36:51.100Z,1011.04
2018-02-04T07:37:51.238Z,1011.05
2018-02-04T07:38:51.096Z,1011.10
2018-02-04T07:39:51.163Z,1011.13
2018-02-04T07:40:51.118Z,1011.10
2018-02-04T07:41:51.154Z,1011.18
2018-02-04T07:43:51.158Z,1011.17
2018-02-04T07:44:51.279Z,1011.20
2018-02-04T07:45:51.183Z,1011.25
2018-02-04T07:46:51.179Z,1011.23
2018-02-04T07:47:51.306Z,1011.27
2018-02-04T07:49:51.206Z,1011.29
2018-02-04T07:50:51.519Z,1011.31
2018-02-04T07:51:51.223Z,1011.32
2018-02-04T07:52:51.232Z,1011.37
2018-02-04T07:53:51.246Z,1011.35
2018-02-04T07:54:51.636Z,1011.40
2018-02-04T07:55:51.262Z,1011.38
2018-02-04T07:56:51.436Z,1011.40
2018-02-04T07:57:51.490Z,1011.38
2018-02-04T07:58:51.378Z,1011.44
2018-02-04T07:59:51.317Z,1011.45
2018-02-04T08:00:51.382Z,1011.46
2018-02-04T08:01:51.431Z,1011.48
2018-02-04T08:02:51.333Z,1011.49
2018-02-04T08:03:51.346Z,1011.54
2018-02-04T08:04:51.357Z,1011.57
2018-02-04T08:05:52.446Z,1011.57
2018-02-04T08:06:51.523Z,1011.57
2018-02-04T08:07:51.383Z,1011.63
2018-02-04T08:09:51.403Z,1011.66
2018-02-04T08:10:51.410Z,1011.69
2018-02-04T08:11:51.423Z,1011.70
2018-02-04T08:12:51.429Z,1011.70
2018-02-04T08:13:51.441Z,1011.73
2018-02-04T08:14:51.451Z,1011.73
2018-02-04T08:15:51.611Z,1011.71
2018-02-04T08:16:51.470Z,1011.79
2018-02-04T08:17:51.480Z,1011.80
2018-02-04T08:18:51.521Z,1011.82
2018-02-04T08:19:51.501Z,1011.82
2018-02-04T08:20:51.510Z,1011.83
2018-02-04T08:21:51.520Z,1011.89
2018-02-04T08:22:51.531Z,1011.91
2018-02-04T08:23:51.542Z,1011.93
2018-02-04T08:24:51.552Z,1011.95
2018-02-04T08:25:51.559Z,1011.96
2018-02-04T08:26:51.632Z,1012.00
2018-02-04T08:27:51.702Z,1012.00
2018-02-04T08:28:51.644Z,1012.02
2018-02-04T08:29:51.809Z,1012.02
2018-02-04T08:30:53.174Z,1012.04
2018-02-04T08:31:51.996Z,1012.04
2018-02-04T08:32:51.741Z,1012.08
2018-02-04T08:33:51.713Z,1012.09
2018-02-04T08:34:51.651Z,1012.12
2018-02-04T08:35:51.662Z,1012.13
2018-02-04T08:36:51.668Z,1012.10
2018-02-04T08:37:51.680Z,1012.15
2018-02-04T08:38:51.691Z,1012.16
2018-02-04T08:39:51.698Z,1012.20
2018-02-04T08:40:51.707Z,1012.16
2018-02-04T08:41:51.716Z,1012.23
2018-02-04T08:42:52.027Z,1012.21
2018-02-04T08:43:51.739Z,1012.22
2018-02-04T08:44:51.746Z,1012.28
2018-02-04T08:45:51.759Z,1012.26
2018-02-04T08:46:51.832Z,1012.29
2018-02-04T08:47:51.777Z,1012.29
2018-02-04T08:48:52.719Z,1012.29
2018-02-04T08:49:51.947Z,1012.31
2018-02-04T08:50:51.841Z,1012.32
2018-02-04T08:51:51.901Z,1012.33
2018-02-04T08:52:51.992Z,1012.37
2018-02-04T08:53:51.841Z,1012.35
2018-02-04T08:54:51.898Z,1012.40
2018-02-04T08:55:51.983Z,1012.37
2018-02-04T08:56:52.231Z,1012.41
2018-02-04T08:57:52.981Z,1012.43
2018-02-04T08:58:52.008Z,1012.46
2018-02-04T08:59:51.911Z,1012.46
2018-02-04T09:00:52.642Z,1012.48
2018-02-04T09:01:51.908Z,1012.51
2018-02-04T09:02:51.920Z,1012.53
2018-02-04T09:03:51.939Z,1012.59
2018-02-04T09:04:52.464Z,1012.60
2018-02-04T09:05:51.947Z,1012.62
2018-02-04T09:06:51.956Z,1012.65
2018-02-04T09:07:52.171Z,1012.66
2018-02-04T09:08:51.978Z,1012.66
2018-02-04T09:09:51.986Z,1012.67
2018-02-04T09:10:51.996Z,1012.71
2018-02-04T09:11:52.006Z,1012.73
2018-02-04T09:12:53.358Z,1012.79
2018-02-04T09:13:53.018Z,1012.80
2018-02-04T09:15:52.057Z,1012.83
2018-02-04T09:16:52.055Z,1012.85
2018-02-04T09:17:52.064Z,1012.84
2018-02-04T09:18:52.075Z,1012.90
2018-02-04T09:19:52.120Z,1012.93
2018-02-04T09:20:52.245Z,1012.96
2018-02-04T09:21:52.107Z,1013.00
2018-02-04T09:22:52.119Z,1012.90
2018-02-04T09:23:52.126Z,1012.98
2018-02-04T09:24:52.291Z,1013.00
2018-02-04T09:25:52.147Z,1013.04
2018-02-04T09:26:52.238Z,1012.97
2018-02-04T09:27:52.266Z,1013.00
2018-02-04T09:28:52.263Z,1012.96
2018-02-04T09:29:52.238Z,1012.99
2018-02-04T09:30:52.198Z,1012.97
2018-02-04T09:31:52.205Z,1013.02
2018-02-04T09:32:52.235Z,1013.04
2018-02-04T09:33:52.241Z,1013.05
2018-02-04T09:34:52.942Z,1013.11
2018-02-04T09:35:52.248Z,1013.10
2018-02-04T09:36:52.758Z,1013.16
2018-02-04T09:37:52.269Z,1013.19
2018-02-04T09:38:52.288Z,1013.26
2018-02-04T09:39:52.288Z,1013.29
2018-02-04T09:40:52.305Z,1013.31
2018-02-04T09:41:52.310Z,1013.31
2018-02-04T09:42:52.324Z,1013.37
2018-02-04T09:43:52.332Z,1013.36
2018-02-04T09:44:52.611Z,1013.41
2018-02-04T09:45:52.515Z,1013.39
2018-02-04T09:46:52.487Z,1013.40
2018-02-04T09:47:52.374Z,1013.46
2018-02-04T09:50:52.413Z,1013.49
2018-02-04T09:51:52.411Z,1013.52
2018-02-04T09:52:52.421Z,1013.50
2018-02-04T09:53:52.432Z,1013.55
2018-02-04T09:54:52.446Z,1013.54
2018-02-04T09:55:52.452Z,1013.57
2018-02-04T09:56:52.464Z,1013.59
2018-02-04T09:57:53.428Z,1013.65
2018-02-04T09:58:52.485Z,1013.62
2018-02-04T09:59:53.001Z,1013.67
2018-02-04T10:00:52.819Z,1013.67
2018-02-04T10:01:52.514Z,1013.70
2018-02-04T10:02:52.535Z,1013.77
2018-02-04T10:03:52.535Z,1013.80
2018-02-04T10:04:52.708Z,1013.80
2018-02-04T10:05:52.561Z,1013.83
2018-02-04T10:06:53.106Z,1013.83
2018-02-04T10:07:52.587Z,1013.88
2018-02-04T10:08:52.588Z,1013.94
2018-02-04T10:09:52.595Z,1013.95
2018-02-04T10:10:52.608Z,1013.91
2018-02-04T10:11:53.343Z,1013.89
2018-02-04T10:12:52.628Z,1013.93
2018-02-04T10:13:52.642Z,1013.98
2018-02-04T10:14:52.657Z,1013.96
2018-02-04T10:15:52.661Z,1013.97
2018-02-04T10:16:52.671Z,1013.93
2018-02-04T10:17:52.681Z,1013.95
2018-02-04T10:18:52.693Z,1013.99
2018-02-04T10:19:52.703Z,1013.98
2018-02-04T10:20:52.714Z,1014.01
2018-02-04T10:21:52.723Z,1014.11
2018-02-04T10:22:52.734Z,1014.08
2018-02-04T10:23:52.748Z,1014.07
2018-02-04T10:24:53.454Z,1014.14
2018-02-04T10:25:53.016Z,1014.15
2018-02-04T10:26:52.776Z,1014.14
2018-02-04T10:27:52.837Z,1014.19
2018-02-04T10:28:52.857Z,1014.21
2018-02-04T10:29:52.809Z,1014.21
2018-02-04T10:31:52.844Z,1014.20
2018-02-04T10:32:52.944Z,1014.25
2018-02-04T10:33:53.060Z,1014.26
2018-02-04T10:34:52.876Z,1014.23
2018-02-04T10:35:53.397Z,1014.29
2018-02-04T10:36:52.883Z,1014.30
2018-02-04T10:37:53.288Z,1014.27
2018-02-04T10:39:52.939Z,1014.35
2018-02-04T10:40:52.924Z,1014.35
2018-02-04T10:41:52.935Z,1014.35
2018-02-04T10:42:52.946Z,1014.36
2018-02-04T10:43:52.957Z,1014.35
2018-02-04T10:44:52.971Z,1014.36
2018-02-04T10:45:53.128Z,1014.30
2018-02-04T10:46:52.989Z,1014.37
2018-02-04T10:47:53.000Z,1014.36
2018-02-04T10:48:53.056Z,1014.37
2018-02-04T10:49:53.021Z,1014.40
2018-02-04T10:50:53.032Z,1014.45
2018-02-04T10:51:53.044Z,1014.43
2018-02-04T10:52:53.067Z,1014.40
2018-02-04T10:53:53.699Z,1014.48
2018-02-04T10:54:53.080Z,1014.49
2018-02-04T10:55:53.088Z,1014.49
2018-02-04T10:56:53.101Z,1014.55
2018-02-04T10:57:53.195Z,1014.54
2018-02-04T10:58:53.120Z,1014.55
2018-02-04T10:59:53.131Z,1014.56
2018-02-04T11:00:53.157Z,1014.62
2018-02-04T11:01:53.154Z,1014.57
2018-02-04T11:02:53.166Z,1014.64
2018-02-04T11:04:53.503Z,1014.65
2018-02-04T11:05:53.210Z,1014.70
2018-02-04T11:06:53.265Z,1014.71
2018-02-04T11:07:53.238Z,1014.72
2018-02-04T11:08:53.228Z,1014.76
2018-02-04T11:09:53.241Z,1014.73
2018-02-04T11:10:53.253Z,1014.73
2018-02-04T11:11:53.261Z,1014.74
2018-02-04T11:12:53.275Z,1014.75
2018-02-04T11:13:53.288Z,1014.77
2018-02-04T11:14:53.293Z,1014.81
2018-02-04T11:15:53.308Z,1014.75
2018-02-04T11:16:53.350Z,1014.77
2018-02-04T11:17:54.017Z,1014.78
2018-02-04T11:18:53.338Z,1014.79
2018-02-04T11:19:53.348Z,1014.83
2018-02-04T11:20:53.366Z,1014.81
2018-02-04T11:21:53.371Z,1014.86
2018-02-04T11:22:53.431Z,1014.84
2018-02-04T11:23:53.441Z,1014.89
2018-02-04T11:24:53.409Z,1014.92
2018-02-04T11:25:53.455Z,1014.89
2018-02-04T11:26:53.437Z,1014.89
2018-02-04T11:27:53.592Z,1014.95
2018-02-04T11:28:53.470Z,1014.96
2018-02-04T11:29:53.507Z,1014.96
2018-02-04T11:30:53.469Z,1014.99
2018-02-04T11:31:53.488Z,1015.00
2018-02-04T11:32:54.552Z,1015.04
2018-02-04T11:33:53.500Z,1015.05
2018-02-04T11:34:53.610Z,1015.05
2018-02-04T11:35:53.571Z,1015.04
2018-02-04T11:36:53.832Z,1015.10
2018-02-04T11:37:53.555Z,1015.08
2018-02-04T11:38:53.556Z,1015.07
2018-02-04T11:39:53.826Z,1015.08
2018-02-04T11:40:53.644Z,1015.14
2018-02-04T11:41:53.591Z,1015.14
2018-02-04T11:42:53.597Z,1015.15
2018-02-04T11:43:53.608Z,1015.13
2018-02-04T11:44:53.629Z,1015.14
2018-02-04T11:45:54.245Z,1015.14
2018-02-04T11:46:53.637Z,1015.20
2018-02-04T11:47:53.748Z,1015.23
2018-02-04T11:48:53.659Z,1015.26
2018-02-04T11:49:53.667Z,1015.28
2018-02-04T11:50:53.678Z,1015.28
2018-02-04T11:51:53.688Z,1015.29
2018-02-04T11:52:53.760Z,1015.31
2018-02-04T11:53:53.707Z,1015.35
2018-02-04T11:54:53.767Z,1015.35
2018-02-04T11:55:53.742Z,1015.36
2018-02-04T11:56:53.738Z,1015.38
2018-02-04T11:57:53.920Z,1015.39
2018-02-04T11:58:53.840Z,1015.39
2018-02-04T11:59:53.789Z,1015.34
2018-02-04T12:00:53.783Z,1015.40
2018-02-04T12:01:53.791Z,1015.43
2018-02-04T12:02:53.802Z,1015.43
2018-02-04T12:03:53.953Z,1015.45
2018-02-04T12:04:53.823Z,1015.43
2018-02-04T12:05:53.841Z,1015.41
2018-02-04T12:06:53.901Z,1015.42
2018-02-04T12:08:54.752Z,1015.45
2018-02-04T12:09:54.374Z,1015.44
2018-02-04T12:10:53.904Z,1015.45
2018-02-04T12:11:53.897Z,1015.45
2018-02-04T12:12:53.916Z,1015.43
2018-02-04T12:13:53.947Z,1015.49
2018-02-04T12:14:53.928Z,1015.43
2018-02-04T12:15:53.938Z,1015.47
2018-02-04T12:16:53.948Z,1015.44
2018-02-04T12:17:53.961Z,1015.46
2018-02-04T12:18:54.092Z,1015.45
2018-02-04T12:19:53.979Z,1015.47
2018-02-04T12:20:53.991Z,1015.42
2018-02-04T12:21:54.057Z,1015.48
2018-02-04T12:22:54.189Z,1015.46
2018-02-04T12:23:54.117Z,1015.46
2018-02-04T12:24:54.142Z,1015.44
2018-02-04T12:25:54.434Z,1015.50
2018-02-04T12:26:54.358Z,1015.52
2018-02-04T12:27:54.700Z,1015.53
2018-02-04T12:28:55.376Z,1015.48
2018-02-04T12:29:54.102Z,1015.49
2018-02-04T12:30:54.109Z,1015.48